Mariopolis, Brazil
Current Conditions -  °F | °C
As of 2:00 PM on Thursday 27 Nov 2014 (Local Time) from SBCH Reporting Station
Broken Clouds Broken Clouds  
Wind Chill: 82°   Ceiling: 20000
Heat Index: 83°   Visibility: 6mi
Dew Point: 63°   Wind: 14mph
Humidity: 51%   Direction: 230°SW
Pressure: 29.94"   Gusts: NA
Location:  26.35°S, 52.56°W
Report Text: SBCH 271600Z 23012KT 9999 SCT035 FEW050TCU BKN200 28/17 Q1014
Loading
Personal Weather Stations






























Interactive Weather Map New forecast layout! Learn more

10-Day Weather Forecast

Advertisements
Track Severe Weather on mobile